Terminal Aerodrome Forecast
Issued by NWS

Home | Current Version | Previous Version | Text Only | Print | Product List | Glossary On
Versions: 1 2 3 4 5 6 7 8 9 10 11 12 13 14 15 16 17 18
000
FTUS43 KFGF 301700
TAFTVF
TAF
KTVF 301738Z 3018/0118 12015G24KT P6SM SCT200
     FM010200 13015G26KT P6SM BKN050
     FM010600 14015G26KT P6SM BKN030
      AMD LTD TO CLD VIS AND WIND=

USA.gov is the U.S. government's official web portal to all federal, state and local government web resources and services.